createdAt,value
2019-04-04T00:01:07.183Z,3.10
2019-04-04T00:03:36.530Z,3.05
2019-04-04T00:09:02.077Z,2.95
2019-04-04T00:14:33.621Z,2.89
2019-04-04T00:17:02.985Z,2.86
2019-04-04T00:22:47.194Z,2.85
2019-04-04T00:25:16.633Z,2.85
2019-04-04T00:27:46.082Z,2.80
2019-04-04T00:30:54.822Z,2.71
2019-04-04T00:33:25.813Z,2.71
2019-04-04T00:41:36.223Z,2.72
2019-04-04T00:44:44.894Z,2.70
2019-04-04T00:47:14.432Z,2.74
2019-04-04T00:49:43.889Z,2.78
2019-04-04T00:55:27.618Z,2.88
2019-04-04T01:01:44.962Z,2.98
2019-04-04T01:04:14.554Z,2.98
2019-04-04T01:06:43.890Z,3.05
2019-04-04T01:09:52.630Z,3.07
2019-04-04T01:12:22.346Z,3.11
2019-04-04T01:14:51.684Z,3.13
2019-04-04T01:18:00.366Z,3.16
2019-04-04T01:20:29.901Z,3.18
2019-04-04T01:22:59.192Z,3.06
2019-04-04T01:26:07.959Z,3.14
2019-04-04T01:31:46.631Z,3.17
2019-04-04T01:34:18.797Z,3.21
2019-04-04T01:39:49.525Z,3.17
2019-04-04T01:42:18.926Z,3.04
2019-04-04T01:44:48.326Z,3.01
2019-04-04T01:47:17.833Z,3.02
2019-04-04T01:49:47.240Z,3.01
2019-04-04T01:52:58.948Z,3.04
2019-04-04T01:55:27.230Z,3.07
2019-04-04T01:57:56.718Z,3.20
2019-04-04T02:00:26.119Z,3.22
2019-04-04T02:06:21.525Z,3.30
2019-04-04T02:08:50.936Z,3.34
2019-04-04T02:11:20.518Z,3.39
2019-04-04T02:16:45.626Z,3.41
2019-04-04T02:19:16.539Z,3.46
2019-04-04T02:21:45.877Z,3.51
2019-04-04T02:24:15.266Z,3.52
2019-04-04T02:26:44.721Z,3.53
2019-04-04T02:29:14.089Z,3.54
2019-04-04T02:34:45.112Z,3.49
2019-04-04T02:37:14.718Z,3.46
2019-04-04T02:39:44.077Z,3.40
2019-04-04T02:42:13.532Z,3.39
2019-04-04T02:44:43.045Z,3.38
2019-04-04T02:47:16.823Z,3.25
2019-04-04T02:49:43.842Z,3.24
2019-04-04T02:52:14.077Z,3.29
2019-04-04T03:03:42.431Z,3.28
2019-04-04T03:09:31.133Z,3.40
2019-04-04T03:14:55.412Z,3.22
2019-04-04T03:17:24.775Z,3.12
2019-04-04T03:20:33.484Z,2.97
2019-04-04T03:26:20.199Z,2.98
2019-04-04T03:28:48.519Z,3.06
2019-04-04T03:31:18.028Z,3.11
2019-04-04T03:33:47.731Z,3.12
2019-04-04T03:36:56.384Z,3.18
2019-04-04T03:40:05.230Z,3.21
2019-04-04T03:42:34.670Z,3.25
2019-04-04T03:47:58.970Z,3.21
2019-04-04T03:56:43.380Z,3.19
2019-04-04T03:59:12.746Z,3.20
2019-04-04T04:02:21.557Z,3.25
2019-04-04T04:04:51.118Z,3.31
2019-04-04T04:07:20.608Z,3.32
2019-04-04T04:09:50.071Z,3.33
2019-04-04T04:12:19.443Z,3.34
2019-04-04T04:14:48.951Z,3.34
2019-04-04T04:17:18.454Z,3.36
2019-04-04T04:19:47.802Z,3.32
2019-04-04T04:22:56.486Z,3.29
2019-04-04T04:28:37.600Z,3.31
2019-04-04T04:33:55.453Z,3.38
2019-04-04T04:45:35.878Z,3.14
2019-04-04T04:48:05.411Z,3.12
2019-04-04T04:50:34.872Z,3.12
2019-04-04T04:53:04.233Z,3.05
2019-04-04T04:58:42.723Z,2.88
2019-04-04T05:01:13.626Z,2.93
2019-04-04T05:06:38.458Z,2.90
2019-04-04T05:12:09.521Z,2.85
2019-04-04T05:17:27.394Z,2.81
2019-04-04T05:19:56.773Z,2.77
2019-04-04T05:22:26.319Z,2.85
2019-04-04T05:25:35.122Z,2.92
2019-04-04T05:28:06.277Z,2.88
2019-04-04T05:33:31.720Z,3.09
2019-04-04T05:36:04.831Z,3.20
2019-04-04T05:38:33.750Z,3.30
2019-04-04T05:41:42.483Z,3.32
2019-04-04T05:44:12.061Z,3.29
2019-04-04T05:46:41.538Z,3.32
2019-04-04T05:49:11.004Z,3.32
2019-04-04T05:51:40.424Z,3.36
2019-04-04T05:54:09.788Z,3.33
2019-04-04T05:56:39.377Z,3.39
2019-04-04T05:59:09.060Z,3.47
2019-04-04T06:04:26.700Z,3.67
2019-04-04T06:07:16.469Z,3.73
2019-04-04T06:12:41.350Z,3.80
2019-04-04T06:15:31.871Z,3.85
2019-04-04T06:21:02.748Z,3.90
2019-04-04T06:24:11.514Z,3.91
2019-04-04T06:29:36.058Z,4.07
2019-04-04T06:32:44.834Z,4.10
2019-04-04T06:35:15.557Z,4.14
2019-04-04T06:37:46.209Z,4.21
2019-04-04T06:40:56.114Z,4.20
2019-04-04T06:43:25.596Z,4.19
2019-04-04T06:45:54.963Z,4.24
2019-04-04T06:48:24.474Z,4.43
2019-04-04T06:51:14.239Z,4.79
2019-04-04T06:53:46.758Z,5.13
2019-04-04T07:08:40.889Z,6.79
2019-04-04T07:14:21.962Z,7.68
2019-04-04T07:16:51.667Z,7.39
2019-04-04T07:19:40.010Z,7.39
2019-04-04T07:22:48.701Z,7.27
2019-04-04T07:31:21.050Z,7.86
2019-04-04T07:33:50.563Z,8.14
2019-04-04T07:36:20.825Z,8.43
2019-04-04T07:41:25.310Z,9.20
2019-04-04T07:43:54.800Z,9.39
2019-04-04T07:46:24.212Z,9.33
2019-04-04T07:48:53.608Z,9.32
2019-04-04T07:54:19.355Z,8.96
2019-04-04T07:56:49.036Z,9.36
2019-04-04T08:02:13.922Z,9.66
2019-04-04T08:05:23.023Z,9.83
2019-04-04T08:07:52.383Z,9.80
2019-04-04T08:10:21.739Z,9.48
2019-04-04T08:12:51.439Z,9.18
2019-04-04T08:15:20.947Z,8.88
2019-04-04T08:17:50.448Z,8.84
2019-04-04T08:23:15.547Z,8.66
2019-04-04T08:28:53.769Z,8.91
2019-04-04T08:34:37.468Z,9.03
2019-04-04T08:37:06.915Z,9.05
2019-04-04T08:39:36.485Z,8.99
2019-04-04T08:42:45.283Z,8.91
2019-04-04T08:48:34.040Z,8.67
2019-04-04T08:54:36.788Z,8.31
2019-04-04T09:00:19.568Z,8.00
2019-04-04T09:05:50.446Z,8.39
2019-04-04T09:08:59.174Z,8.22
2019-04-04T09:11:28.633Z,8.12
2019-04-04T09:13:58.148Z,8.01
2019-04-04T09:16:46.635Z,8.21
2019-04-04T09:22:30.569Z,8.46
2019-04-04T09:25:01.326Z,8.70
2019-04-04T09:27:31.191Z,8.92
2019-04-04T09:30:00.720Z,8.90
2019-04-04T09:32:41.450Z,9.04
2019-04-04T09:41:27.223Z,8.80
2019-04-04T09:43:56.738Z,8.66
2019-04-04T09:47:05.941Z,8.68
2019-04-04T09:56:26.002Z,9.14
2019-04-04T10:01:56.476Z,8.86
2019-04-04T10:04:25.963Z,8.86
2019-04-04T10:06:55.632Z,8.80
2019-04-04T10:10:04.405Z,8.72
2019-04-04T10:12:34.121Z,8.69
2019-04-04T10:18:10.865Z,8.66
2019-04-04T10:23:41.365Z,8.78
2019-04-04T10:26:10.730Z,8.88
2019-04-04T10:29:19.474Z,8.82
2019-04-04T10:31:49.195Z,8.85
2019-04-04T10:34:18.611Z,8.75
2019-04-04T10:36:48.017Z,8.68
2019-04-04T10:39:56.688Z,8.73
2019-04-04T10:42:26.242Z,8.78
2019-04-04T10:45:34.988Z,8.76
2019-04-04T10:50:58.436Z,8.93
2019-04-04T10:53:27.770Z,8.98
2019-04-04T10:58:52.679Z,8.94
2019-04-04T11:04:35.846Z,8.70
2019-04-04T11:10:53.265Z,8.59
2019-04-04T11:19:37.589Z,8.33
2019-04-04T11:22:07.085Z,8.32
2019-04-04T11:24:36.782Z,8.33
2019-04-04T11:30:01.472Z,8.30
2019-04-04T11:32:31.026Z,8.35
2019-04-04T11:38:19.691Z,8.43
2019-04-04T11:40:49.132Z,8.44
2019-04-04T11:52:23.469Z,8.85
2019-04-04T11:55:11.709Z,8.76
2019-04-04T11:58:20.427Z,8.69
2019-04-04T12:03:41.064Z,8.56
2019-04-04T12:09:08.062Z,8.05
2019-04-04T12:11:37.561Z,7.92
2019-04-04T12:17:02.585Z,7.55
2019-04-04T12:19:43.418Z,7.37
2019-04-04T12:22:12.970Z,7.29
2019-04-04T12:27:51.216Z,7.06
2019-04-04T12:30:59.868Z,7.02
2019-04-04T12:33:29.316Z,6.96
2019-04-04T12:35:58.752Z,6.95
2019-04-04T12:38:28.237Z,6.95
2019-04-04T12:40:57.749Z,6.96
2019-04-04T12:46:42.595Z,6.87
2019-04-04T12:49:51.975Z,6.65
2019-04-04T12:55:00.576Z,6.50
2019-04-04T12:57:29.939Z,6.45
2019-04-04T12:59:59.318Z,6.34
2019-04-04T13:02:28.768Z,6.30
2019-04-04T13:04:58.188Z,6.31
2019-04-04T13:07:27.590Z,6.27
2019-04-04T13:09:57.056Z,6.14
2019-04-04T13:12:26.393Z,6.14
2019-04-04T13:14:55.759Z,6.18
2019-04-04T13:17:25.248Z,6.17
2019-04-04T13:19:54.541Z,6.14
2019-04-04T13:22:23.900Z,6.11
2019-04-04T13:24:53.328Z,6.08
2019-04-04T13:27:22.745Z,6.12
2019-04-04T13:29:52.111Z,6.07
2019-04-04T13:32:21.622Z,6.02
2019-04-04T13:34:59.221Z,6.00
2019-04-04T13:37:22.112Z,6.01
2019-04-04T13:39:51.560Z,6.01
2019-04-04T13:42:20.891Z,6.08
2019-04-04T13:44:52.682Z,6.10
2019-04-04T13:47:21.713Z,6.19
2019-04-04T13:49:51.188Z,6.19
2019-04-04T13:52:20.510Z,6.18
2019-04-04T13:54:49.924Z,6.20
2019-04-04T14:03:14.744Z,6.14
2019-04-04T14:06:23.536Z,6.22
2019-04-04T14:11:48.696Z,6.36
2019-04-04T14:14:18.363Z,6.10
2019-04-04T14:16:47.806Z,6.04
2019-04-04T14:19:36.461Z,5.89
2019-04-04T14:25:14.507Z,5.60
2019-04-04T14:27:44.015Z,5.43
2019-04-04T14:30:13.693Z,5.43
2019-04-04T14:32:43.121Z,5.42
2019-04-04T14:35:12.657Z,5.28
2019-04-04T14:37:42.092Z,5.22
2019-04-04T14:40:13.122Z,5.22
2019-04-04T14:42:42.553Z,5.27
2019-04-04T14:45:12.236Z,5.29
2019-04-04T14:47:41.592Z,5.29
2019-04-04T14:50:10.980Z,5.35
2019-04-04T14:52:40.492Z,5.28
2019-04-04T14:55:12.278Z,5.15
2019-04-04T14:57:41.657Z,5.18
2019-04-04T15:00:15.528Z,5.25
2019-04-04T15:02:43.657Z,5.29
2019-04-04T15:05:13.113Z,5.37
2019-04-04T15:07:42.519Z,5.32
2019-04-04T15:10:12.059Z,5.25
2019-04-04T15:12:41.540Z,5.26
2019-04-04T15:15:12.419Z,5.22
2019-04-04T15:17:41.829Z,5.43
2019-04-04T15:20:11.713Z,5.43
2019-04-04T15:22:41.205Z,5.32
2019-04-04T15:25:10.943Z,5.28
2019-04-04T15:27:40.353Z,5.19
2019-04-04T15:30:10.286Z,5.04
2019-04-04T15:32:39.763Z,5.00
2019-04-04T15:35:09.131Z,4.88
2019-04-04T15:37:38.591Z,4.85
2019-04-04T15:40:08.309Z,4.80
2019-04-04T15:42:37.912Z,4.80
2019-04-04T15:45:08.584Z,4.71
2019-04-04T15:47:38.361Z,4.65
2019-04-04T15:50:08.201Z,4.62
2019-04-04T15:52:37.572Z,4.53
2019-04-04T15:55:07.275Z,4.42
2019-04-04T15:57:36.646Z,4.34
2019-04-04T16:00:07.457Z,4.38
2019-04-04T16:02:36.921Z,4.45
2019-04-04T16:05:07.823Z,4.42
2019-04-04T16:07:37.177Z,4.36
2019-04-04T16:10:07.019Z,4.39
2019-04-04T16:12:36.487Z,4.36
2019-04-04T16:15:06.098Z,4.23
2019-04-04T16:17:35.567Z,4.19
2019-04-04T16:20:05.301Z,4.20
2019-04-04T16:22:34.744Z,4.16
2019-04-04T16:25:04.170Z,4.08
2019-04-04T16:36:50.332Z,3.95
2019-04-04T16:39:20.079Z,3.90
2019-04-04T16:42:01.607Z,3.89
2019-04-04T16:44:20.865Z,3.86
2019-04-04T16:46:50.270Z,3.84
2019-04-04T16:49:19.693Z,3.89
2019-04-04T16:51:49.418Z,3.91
2019-04-04T16:54:18.864Z,3.95
2019-04-04T16:56:48.191Z,3.91
2019-04-04T16:59:17.641Z,3.77
2019-04-04T17:01:47.021Z,3.75
2019-04-04T17:04:16.379Z,3.74
2019-04-04T17:06:45.858Z,3.74
2019-04-04T17:09:15.263Z,3.75
2019-04-04T17:11:44.750Z,3.73
2019-04-04T17:14:14.250Z,3.66
2019-04-04T17:17:22.899Z,3.68
2019-04-04T17:19:52.568Z,3.68
2019-04-04T17:22:22.050Z,2.84
2019-04-04T17:24:51.694Z,3.62
2019-04-04T17:27:21.328Z,3.64
2019-04-04T17:29:51.263Z,3.66
2019-04-04T17:32:21.354Z,3.69
2019-04-04T17:34:50.792Z,3.69
2019-04-04T17:37:20.214Z,3.72
2019-04-04T17:39:50.080Z,3.68
2019-04-04T17:42:29.582Z,3.65
2019-04-04T17:44:50.792Z,3.67
2019-04-04T17:47:20.744Z,3.68
2019-04-04T17:49:50.591Z,3.65
2019-04-04T17:52:20.012Z,3.69
2019-04-04T17:54:49.949Z,3.65
2019-04-04T17:57:19.414Z,3.65
2019-04-04T17:59:48.957Z,3.68
2019-04-04T18:02:57.668Z,3.65
2019-04-04T18:08:18.450Z,3.53
2019-04-04T18:16:44.501Z,3.47
2019-04-04T18:19:13.874Z,3.42
2019-04-04T18:21:43.415Z,3.45
2019-04-04T18:24:13.313Z,3.45
2019-04-04T18:26:43.106Z,3.42
2019-04-04T18:29:12.772Z,3.42
2019-04-04T18:31:42.683Z,3.47
2019-04-04T18:34:12.310Z,3.44
2019-04-04T18:36:42.051Z,3.43
2019-04-04T18:39:11.996Z,3.44
2019-04-04T18:41:41.747Z,3.44
2019-04-04T18:44:11.466Z,3.41
2019-04-04T18:46:40.917Z,3.37
2019-04-04T18:49:10.656Z,3.36
2019-04-04T18:51:40.113Z,3.33
2019-04-04T18:54:09.589Z,3.28
2019-04-04T18:56:38.983Z,3.19
2019-04-04T18:59:08.780Z,3.10
2019-04-04T19:01:38.617Z,3.05
2019-04-04T19:04:08.277Z,3.01
2019-04-04T19:06:37.906Z,2.97
2019-04-04T19:09:15.068Z,2.93
2019-04-04T19:11:43.131Z,2.84
2019-04-04T19:14:12.730Z,2.78
2019-04-04T19:16:42.635Z,2.74
2019-04-04T19:19:12.298Z,2.70
2019-04-04T19:21:41.621Z,2.68
2019-04-04T19:24:11.751Z,2.58
2019-04-04T19:26:41.086Z,2.52
2019-04-04T19:29:10.708Z,2.48
2019-04-04T19:31:40.248Z,2.43
2019-04-04T19:34:11.748Z,2.37
2019-04-04T19:36:41.951Z,2.30
2019-04-04T19:39:17.081Z,2.26
2019-04-04T19:41:46.664Z,2.21
2019-04-04T19:44:16.495Z,2.14
2019-04-04T19:46:46.016Z,2.09
2019-04-04T19:49:15.439Z,2.03
2019-04-04T19:51:44.905Z,1.95
2019-04-04T19:54:14.276Z,1.85
2019-04-04T19:56:43.957Z,1.83
2019-04-04T19:59:13.324Z,1.74
2019-04-04T20:01:42.652Z,1.75
2019-04-04T20:04:12.107Z,1.69
2019-04-04T20:06:41.438Z,1.58
2019-04-04T20:09:11.036Z,1.54
2019-04-04T20:11:40.893Z,1.50
2019-04-04T20:14:10.880Z,1.42
2019-04-04T20:16:41.031Z,1.41
2019-04-04T20:19:11.179Z,1.35
2019-04-04T20:21:41.093Z,1.31
2019-04-04T20:24:10.833Z,1.32
2019-04-04T20:26:40.422Z,1.30
2019-04-04T20:29:09.942Z,1.26
2019-04-04T20:31:39.305Z,1.23
2019-04-04T20:34:08.751Z,1.21
2019-04-04T20:36:38.226Z,1.13
2019-04-04T20:39:08.511Z,1.06
2019-04-04T20:41:37.929Z,1.03
2019-04-04T20:44:07.562Z,1.06
2019-04-04T20:46:37.094Z,1.04
2019-04-04T20:49:06.628Z,1.00
2019-04-04T20:51:36.170Z,1.02
2019-04-04T20:54:05.513Z,1.00
2019-04-04T20:58:08.083Z,1.01
2019-04-04T21:00:37.587Z,0.99
2019-04-04T21:03:06.911Z,1.04
2019-04-04T21:05:36.395Z,1.08
2019-04-04T21:08:05.809Z,1.07
2019-04-04T21:10:35.179Z,1.06
2019-04-04T21:13:04.569Z,1.03
2019-04-04T21:15:33.966Z,0.99
2019-04-04T21:18:03.291Z,0.99
2019-04-04T21:20:32.715Z,0.94
2019-04-04T21:23:02.190Z,0.93
2019-04-04T21:25:31.560Z,0.92
2019-04-04T21:28:00.924Z,0.90
2019-04-04T21:30:30.377Z,0.89
2019-04-04T21:32:59.943Z,0.85
2019-04-04T21:35:29.341Z,0.81
2019-04-04T21:41:07.597Z,0.69
2019-04-04T21:44:16.227Z,0.59
2019-04-04T21:46:45.650Z,0.59
2019-04-04T21:52:29.333Z,0.61
2019-04-04T21:58:07.483Z,0.50
2019-04-04T22:00:48.985Z,0.51
2019-04-04T22:03:29.532Z,0.51
2019-04-04T22:09:00.689Z,0.48
2019-04-04T22:12:09.381Z,0.49
2019-04-04T22:14:38.918Z,0.48
2019-04-04T22:20:37.614Z,0.35
2019-04-04T22:23:07.152Z,0.36
2019-04-04T22:25:36.656Z,0.34
2019-04-04T22:28:06.054Z,0.32
2019-04-04T22:30:35.455Z,0.27
2019-04-04T22:35:59.919Z,0.27
2019-04-04T22:41:43.315Z,0.19
2019-04-04T22:44:12.803Z,0.15
2019-04-04T22:47:21.517Z,0.12
2019-04-04T22:49:50.950Z,0.03
2019-04-04T22:52:20.355Z,0.02
2019-04-04T22:55:29.041Z,0.02
2019-04-04T22:57:58.439Z,-0.04
2019-04-04T23:00:27.996Z,-0.06
2019-04-04T23:03:36.829Z,-0.08
2019-04-04T23:06:06.280Z,-0.06
2019-04-04T23:08:35.704Z,-0.06
2019-04-04T23:11:24.113Z,-0.08
2019-04-04T23:13:53.757Z,-0.10
2019-04-04T23:16:41.978Z,-0.08
2019-04-04T23:19:50.742Z,-0.07
2019-04-04T23:22:20.276Z,-0.13
2019-04-04T23:24:49.678Z,-0.14
2019-04-04T23:27:19.027Z,-0.11
2019-04-04T23:32:44.112Z,-0.11
2019-04-04T23:35:52.831Z,-0.17
2019-04-04T23:38:22.213Z,-0.17
2019-04-04T23:40:51.708Z,-0.19
2019-04-04T23:43:21.250Z,-0.23
2019-04-04T23:45:50.631Z,-0.22
2019-04-04T23:48:20.165Z,-0.24
2019-04-04T23:50:49.611Z,-0.27
2019-04-04T23:53:19.091Z,-0.27
2019-04-04T23:55:48.964Z,-0.25
2019-04-04T23:58:57.675Z,-0.30
